QTR51B LEBL-OTHH
Flight info
| Callsign | QTR51B |
|---|---|
| Flight time | N/A |
| Altitude | 34000 |
| Route | DIPES N725 OSPOK/N0473F390 DCT NOLVI DCT ORKUM/N0474F400 DCT ELSAG DCT ALG/N0472F390 DCT SUBOK/N0474F410 DCT ABNAT DCT EVLIB DCT ARLOS DCT SALUN N705 MMA P751 DASUM Y234 FYM M872 BDB Y214 RAPMA/N0466F290 Y214 ASPUS Y432 LADBO T142 LAEEB |
| Aircraft | A359/H-SDE2E3GHIJ3J4J5LM1ORWXY/LB1D1 |
Departure
| Time | N/A |
|---|---|
| Airport | Josep Tarradellas Barcelona-El Prat Airport (LEBL) |
Arrival
| Time | 2026-05-04 11:25 |
|---|---|
| Airport | Hamad International Airport (OTHH) |
| Time | Latitude | Longitude | Altitude | Speed | Heading |
|---|---|---|---|---|---|
| 2026-05-04 10:22 | 23.56709 | 46.42066 | 40930 ft | 546 kts | 99° |
| 2026-05-04 10:23 | 23.55981 | 46.50119 | 40923 ft | 546 kts | 99° |
| 2026-05-04 10:25 | 23.52968 | 46.83022 | 40901 ft | 545 kts | 99° |
| 2026-05-04 10:25 | 23.52204 | 46.91238 | 40900 ft | 545 kts | 99° |
| 2026-05-04 10:26 | 23.51436 | 46.99443 | 40896 ft | 545 kts | 99° |
| 2026-05-04 10:26 | 23.50664 | 47.07655 | 40884 ft | 545 kts | 99° |
| 2026-05-04 10:27 | 23.49889 | 47.15861 | 40878 ft | 544 kts | 99° |
| 2026-05-04 10:27 | 23.49109 | 47.24055 | 40878 ft | 544 kts | 99° |
| 2026-05-04 10:28 | 23.48325 | 47.32251 | 40864 ft | 544 kts | 99° |
| 2026-05-04 10:28 | 23.47537 | 47.40446 | 40862 ft | 544 kts | 99° |
| 2026-05-04 10:29 | 23.46744 | 47.48643 | 40867 ft | 544 kts | 99° |
| 2026-05-04 10:29 | 23.45953 | 47.56834 | 40854 ft | 544 kts | 99° |
| 2026-05-04 10:30 | 23.45150 | 47.65036 | 40852 ft | 545 kts | 99° |
| 2026-05-04 10:30 | 23.44342 | 47.73238 | 40845 ft | 544 kts | 99° |
| 2026-05-04 10:31 | 23.43531 | 47.81433 | 40837 ft | 544 kts | 99° |
| 2026-05-04 10:32 | 23.40670 | 48.10049 | 40823 ft | 545 kts | 99° |
| 2026-05-04 10:33 | 23.39840 | 48.18255 | 40810 ft | 545 kts | 99° |
| 2026-05-04 10:33 | 23.39005 | 48.26463 | 40808 ft | 545 kts | 99° |
| 2026-05-04 10:34 | 23.38168 | 48.34650 | 40810 ft | 544 kts | 99° |
| 2026-05-04 10:34 | 23.37663 | 48.42882 | 40807 ft | 546 kts | 94° |
| 2026-05-04 10:35 | 23.37448 | 48.51146 | 40807 ft | 546 kts | 94° |
| 2026-05-04 10:35 | 23.37192 | 48.59411 | 40807 ft | 546 kts | 94° |
| 2026-05-04 10:36 | 23.36870 | 48.67673 | 40804 ft | 546 kts | 95° |
| 2026-05-04 10:36 | 23.36521 | 48.75933 | 40798 ft | 546 kts | 95° |
| 2026-05-04 10:37 | 23.36167 | 48.84194 | 40799 ft | 546 kts | 95° |
| 2026-05-04 10:37 | 23.35810 | 48.92442 | 40795 ft | 546 kts | 95° |
| 2026-05-04 10:39 | 23.34539 | 49.21273 | 40791 ft | 545 kts | 95° |
| 2026-05-04 10:40 | 23.34168 | 49.29456 | 40789 ft | 545 kts | 95° |
| 2026-05-04 10:40 | 23.33790 | 49.37697 | 40790 ft | 546 kts | 95° |
| 2026-05-04 10:41 | 23.33408 | 49.45944 | 40788 ft | 546 kts | 95° |
| 2026-05-04 10:41 | 23.33022 | 49.54181 | 40785 ft | 546 kts | 94° |
| 2026-05-04 10:42 | 23.32632 | 49.62419 | 40790 ft | 545 kts | 94° |
| 2026-05-04 10:42 | 23.32238 | 49.70648 | 40790 ft | 544 kts | 94° |
| 2026-05-04 10:43 | 23.31840 | 49.78873 | 40788 ft | 544 kts | 94° |
| 2026-05-04 10:45 | 23.30203 | 50.11777 | 40784 ft | 545 kts | 94° |
| 2026-05-04 10:45 | 23.29782 | 50.20015 | 40794 ft | 545 kts | 94° |
| 2026-05-04 10:46 | 23.29358 | 50.28238 | 40777 ft | 545 kts | 94° |
| 2026-05-04 10:46 | 23.28930 | 50.36456 | 40785 ft | 544 kts | 94° |
| 2026-05-04 10:47 | 23.28498 | 50.44669 | 40787 ft | 544 kts | 94° |
| 2026-05-04 10:47 | 23.28064 | 50.52829 | 40787 ft | 544 kts | 94° |
| 2026-05-04 10:49 | 23.26274 | 50.85695 | 40784 ft | 545 kts | 94° |
| 2026-05-04 10:50 | 23.25816 | 50.93916 | 40778 ft | 544 kts | 94° |
| 2026-05-04 10:51 | 23.31600 | 51.20229 | 40780 ft | 530 kts | 31° |
| 2026-05-04 10:52 | 23.34822 | 51.22092 | 40786 ft | 522 kts | 16° |
| 2026-05-04 10:52 | 23.38307 | 51.23008 | 40780 ft | 512 kts | 1° |
| 2026-05-04 10:52 | 23.41824 | 51.22934 | 40781 ft | 502 kts | 346° |
| 2026-05-04 10:54 | 23.56412 | 51.04956 | 40918 ft | 476 kts | 310° |
| 2026-05-04 10:54 | 23.58895 | 51.02550 | 40957 ft | 481 kts | 319° |
| 2026-05-04 10:56 | 23.81593 | 51.00411 | 37627 ft | 519 kts | 23° |
| 2026-05-04 10:56 | 23.84737 | 51.02269 | 36780 ft | 522 kts | 24° |
| 2026-05-04 10:56 | 23.87971 | 51.04197 | 35906 ft | 524 kts | 24° |
| 2026-05-04 10:57 | 23.91169 | 51.06099 | 35069 ft | 525 kts | 24° |
| 2026-05-04 10:57 | 23.94344 | 51.07984 | 34242 ft | 527 kts | 24° |
| 2026-05-04 10:57 | 23.97572 | 51.09898 | 33342 ft | 529 kts | 25° |
| 2026-05-04 10:57 | 24.00811 | 51.11817 | 32409 ft | 530 kts | 25° |
| 2026-05-04 10:58 | 24.04057 | 51.13741 | 31555 ft | 530 kts | 25° |
| 2026-05-04 10:58 | 24.07300 | 51.15664 | 30801 ft | 529 kts | 25° |
| 2026-05-04 10:58 | 24.10519 | 51.17575 | 30130 ft | 526 kts | 25° |
| 2026-05-04 10:58 | 24.13731 | 51.19482 | 29418 ft | 522 kts | 25° |
| 2026-05-04 10:59 | 24.16908 | 51.21369 | 28768 ft | 516 kts | 25° |
| 2026-05-04 10:59 | 24.20043 | 51.23232 | 28150 ft | 510 kts | 25° |
| 2026-05-04 10:59 | 24.23146 | 51.25076 | 27556 ft | 504 kts | 26° |
| 2026-05-04 10:59 | 24.24756 | 51.26033 | 27245 ft | 501 kts | 26° |
| 2026-05-04 11:00 | 24.26824 | 51.27263 | 26836 ft | 498 kts | 26° |
| 2026-05-04 11:01 | 24.46834 | 51.39188 | 22861 ft | 463 kts | 27° |
| 2026-05-04 11:02 | 24.49651 | 51.40870 | 22187 ft | 458 kts | 27° |
| 2026-05-04 11:02 | 24.52438 | 51.42536 | 21550 ft | 454 kts | 27° |
| 2026-05-04 11:05 | 24.87393 | 51.65144 | 12926 ft | 394 kts | 58° |
| 2026-05-04 11:06 | 24.88708 | 51.67737 | 12419 ft | 387 kts | 59° |
| 2026-05-04 11:06 | 24.89978 | 51.70269 | 12288 ft | 370 kts | 59° |
| 2026-05-04 11:06 | 24.91216 | 51.72727 | 12156 ft | 366 kts | 59° |
| 2026-05-04 11:06 | 24.92456 | 51.75174 | 12026 ft | 366 kts | 59° |
| 2026-05-04 11:08 | 25.01114 | 51.92241 | 11266 ft | 363 kts | 58° |
| 2026-05-04 11:10 | 25.13598 | 51.95774 | 10066 ft | 330 kts | 321° |
| 2026-05-04 11:12 | 25.26893 | 51.90449 | 8716 ft | 276 kts | 338° |
| 2026-05-04 11:12 | 25.28680 | 51.89690 | 8490 ft | 275 kts | 337° |
| 2026-05-04 11:12 | 25.30454 | 51.88930 | 8270 ft | 272 kts | 337° |
| 2026-05-04 11:12 | 25.32193 | 51.88110 | 8020 ft | 271 kts | 332° |
| 2026-05-04 11:13 | 25.33776 | 51.87005 | 7796 ft | 269 kts | 322° |
| 2026-05-04 11:13 | 25.35110 | 51.85567 | 7566 ft | 269 kts | 310° |
| 2026-05-04 11:13 | 25.36142 | 51.83844 | 7330 ft | 270 kts | 299° |
| 2026-05-04 11:13 | 25.36825 | 51.81911 | 7109 ft | 272 kts | 288° |
| 2026-05-04 11:14 | 25.36966 | 51.81248 | 7037 ft | 273 kts | 284° |
| 2026-05-04 11:16 | 25.24671 | 51.71634 | 6943 ft | 306 kts | 135° |
| 2026-05-04 11:16 | 25.23362 | 51.73445 | 6852 ft | 300 kts | 122° |
| 2026-05-04 11:16 | 25.21870 | 51.75082 | 6631 ft | 306 kts | 149° |
| 2026-05-04 11:17 | 25.19861 | 51.75741 | 6362 ft | 302 kts | 181° |
| 2026-05-04 11:17 | 25.17766 | 51.75627 | 6121 ft | 303 kts | 183° |
| 2026-05-04 11:19 | 25.04924 | 51.80064 | 6259 ft | 295 kts | 219° |
| 2026-05-04 11:19 | 25.03530 | 51.78462 | 6359 ft | 287 kts | 242° |
| 2026-05-04 11:19 | 25.02793 | 51.76483 | 6348 ft | 271 kts | 263° |
| 2026-05-04 11:19 | 25.02751 | 51.74500 | 6238 ft | 251 kts | 283° |
| 2026-05-04 11:20 | 25.03264 | 51.72719 | 6010 ft | 239 kts | 299° |
| 2026-05-04 11:20 | 25.04159 | 51.71234 | 5760 ft | 230 kts | 322° |
| 2026-05-04 11:20 | 25.05586 | 51.70540 | 5560 ft | 226 kts | 348° |
| 2026-05-04 11:20 | 25.07127 | 51.70200 | 5325 ft | 227 kts | 347° |
| 2026-05-04 11:22 | 25.17300 | 51.66306 | 1589 ft | 215 kts | 338° |
| 2026-05-04 11:22 | 25.18649 | 51.65724 | 1187 ft | 198 kts | 337° |
| 2026-05-04 11:23 | 25.19822 | 51.65200 | 1130 ft | 167 kts | 337° |
| 2026-05-04 11:23 | 25.20821 | 51.64760 | 1117 ft | 146 kts | 336° |
| 2026-05-04 11:24 | 25.26067 | 51.62448 | 33 ft | 126 kts | 338° |
| 2026-05-04 11:25 | 25.26781 | 51.62135 | 30 ft | 96 kts | 338° |
| 2026-05-04 11:25 | 25.27289 | 51.61899 | 33 ft | 58 kts | 329° |
| 2026-05-04 11:25 | 25.27488 | 51.61691 | 34 ft | 19 kts | 307° |
| 2026-05-04 11:26 | 25.27496 | 51.61412 | 36 ft | 22 kts | 248° |
| 2026-05-04 11:27 | 25.27060 | 51.60742 | 36 ft | 13 kts | 88° |
| 2026-05-04 11:28 | 25.27075 | 51.60831 | 36 ft | 10 kts | 122° |
| 2026-05-04 11:28 | 25.27018 | 51.60867 | 36 ft | 6 kts | 158° |
| 2026-05-04 11:28 | 25.27007 | 51.60871 | 36 ft | 0 kts | 158° |
| 2026-05-04 11:28 | 25.27000 | 51.60875 | 36 ft | 0 kts | 158° |